createdAt,value
2018-06-12T00:00:41.837Z,100.00
2018-06-12T00:03:10.394Z,100.00
2018-06-12T00:05:38.934Z,100.00
2018-06-12T00:08:07.498Z,100.00
2018-06-12T00:10:36.037Z,100.00
2018-06-12T00:13:04.606Z,100.00
2018-06-12T00:15:33.149Z,100.00
2018-06-12T00:18:05.477Z,100.00
2018-06-12T00:20:34.018Z,100.00
2018-06-12T00:23:02.554Z,100.00
2018-06-12T00:25:31.129Z,100.00
2018-06-12T00:27:59.682Z,100.00
2018-06-12T00:30:29.204Z,100.00
2018-06-12T00:32:57.776Z,100.00
2018-06-12T00:35:26.316Z,100.00
2018-06-12T00:37:54.875Z,100.00
2018-06-12T00:40:25.399Z,100.00
2018-06-12T00:42:53.979Z,100.00
2018-06-12T00:45:22.512Z,100.00
2018-06-12T00:47:51.051Z,100.00
2018-06-12T00:50:19.584Z,100.00
2018-06-12T00:52:48.124Z,100.00
2018-06-12T00:55:16.693Z,100.00
2018-06-12T00:57:45.256Z,100.00
2018-06-12T01:00:13.824Z,100.00
2018-06-12T01:02:42.364Z,100.00
2018-06-12T01:05:10.912Z,100.00
2018-06-12T01:07:39.471Z,100.00
2018-06-12T01:10:08.014Z,100.00
2018-06-12T01:12:36.558Z,100.00
2018-06-12T01:15:05.111Z,100.00
2018-06-12T01:17:34.550Z,100.00
2018-06-12T01:20:03.093Z,100.00
2018-06-12T01:22:31.639Z,100.00
2018-06-12T01:25:00.200Z,100.00
2018-06-12T01:27:28.742Z,100.00
2018-06-12T01:29:57.346Z,100.00
2018-06-12T01:32:27.827Z,100.00
2018-06-12T01:34:57.315Z,100.00
2018-06-12T01:37:29.478Z,100.00
2018-06-12T01:39:58.037Z,100.00
2018-06-12T01:42:26.575Z,100.00
2018-06-12T01:44:55.114Z,100.00
2018-06-12T01:47:23.667Z,100.00
2018-06-12T01:49:52.203Z,100.00
2018-06-12T01:52:30.163Z,100.00
2018-06-12T01:55:00.653Z,100.00
2018-06-12T01:57:29.180Z,100.00
2018-06-12T01:59:57.732Z,100.00
2018-06-12T02:02:26.276Z,100.00
2018-06-12T02:04:58.116Z,100.00
2018-06-12T02:07:26.658Z,100.00
2018-06-12T02:09:55.205Z,100.00
2018-06-12T02:14:09.430Z,100.00
2018-06-12T02:16:38.497Z,100.00
2018-06-12T02:19:07.558Z,100.00
2018-06-12T02:21:36.616Z,100.00
2018-06-12T02:24:05.700Z,100.00
2018-06-12T02:26:34.764Z,100.00
2018-06-12T02:31:39.625Z,100.00
2018-06-12T02:36:44.465Z,100.00
2018-06-12T02:39:13.533Z,100.00
2018-06-12T02:41:42.581Z,100.00
2018-06-12T02:44:11.732Z,100.00
2018-06-12T02:46:40.812Z,100.00
2018-06-12T02:49:09.889Z,100.00
2018-06-12T02:51:38.961Z,100.00
2018-06-12T02:54:08.029Z,100.00
2018-06-12T02:56:37.100Z,100.00
2018-06-12T02:59:06.159Z,100.00
2018-06-12T03:01:35.238Z,100.00
2018-06-12T03:06:40.023Z,100.00
2018-06-12T03:09:09.102Z,100.00
2018-06-12T03:11:38.165Z,100.00
2018-06-12T03:16:42.953Z,100.00
2018-06-12T03:19:12.034Z,100.00
2018-06-12T03:21:41.097Z,100.00
2018-06-12T03:24:10.166Z,100.00
2018-06-12T03:26:39.242Z,100.00
2018-06-12T03:29:10.273Z,100.00
2018-06-12T03:31:39.349Z,100.00
2018-06-12T03:34:08.555Z,100.00
2018-06-12T03:36:37.625Z,100.00
2018-06-12T03:39:06.726Z,100.00
2018-06-12T03:41:35.803Z,100.00
2018-06-12T03:44:05.822Z,100.00
2018-06-12T03:46:34.930Z,100.00
2018-06-12T03:49:05.951Z,100.00
2018-06-12T03:51:35.012Z,100.00
2018-06-12T03:54:04.078Z,100.00
2018-06-12T03:56:33.155Z,100.00
2018-06-12T03:59:02.270Z,100.00
2018-06-12T04:01:31.346Z,100.00
2018-06-12T04:04:02.585Z,100.00
2018-06-12T04:06:32.608Z,100.00
2018-06-12T04:09:01.679Z,100.00
2018-06-12T04:11:30.735Z,100.00
2018-06-12T04:13:59.848Z,100.00
2018-06-12T04:16:28.941Z,100.00
2018-06-12T04:24:09.120Z,98.58
2018-06-12T04:26:38.210Z,98.49
2018-06-12T04:29:07.278Z,98.38
2018-06-12T04:31:37.311Z,98.57
2018-06-12T04:34:06.408Z,98.24
2018-06-12T04:39:11.797Z,97.99
2018-06-12T04:41:40.872Z,96.84
2018-06-12T04:44:09.952Z,98.13
2018-06-12T04:46:46.341Z,97.78
2018-06-12T04:49:15.478Z,97.84
2018-06-12T04:51:49.984Z,97.76
2018-06-12T04:54:23.011Z,97.33
2018-06-12T04:56:52.074Z,97.09
2018-06-12T04:59:26.477Z,95.96
2018-06-12T05:01:55.539Z,96.51
2018-06-12T05:04:24.593Z,95.80
2018-06-12T05:09:29.451Z,94.50
2018-06-12T05:11:58.516Z,94.42
2018-06-12T05:14:28.539Z,95.62
2018-06-12T05:16:58.524Z,96.05
2018-06-12T05:19:27.592Z,96.71
2018-06-12T05:21:56.653Z,96.07
2018-06-12T05:24:25.709Z,95.01
2018-06-12T05:26:54.775Z,94.15
2018-06-12T05:29:23.852Z,92.37
2018-06-12T05:31:52.923Z,93.03
2018-06-12T05:34:21.987Z,93.33
2018-06-12T05:36:51.058Z,94.35
2018-06-12T05:39:21.089Z,95.15
2018-06-12T05:41:51.072Z,95.68
2018-06-12T05:44:20.154Z,95.19
2018-06-12T05:46:49.241Z,94.87
2018-06-12T05:51:54.071Z,92.52
2018-06-12T05:59:36.734Z,87.54
2018-06-12T06:02:05.800Z,88.72
2018-06-12T06:04:34.856Z,88.35
2018-06-12T06:07:04.057Z,86.86
2018-06-12T06:09:33.125Z,87.13
2018-06-12T06:12:02.185Z,84.34
2018-06-12T06:14:31.252Z,84.62
2018-06-12T06:17:00.329Z,77.94
2018-06-12T06:19:29.395Z,79.09
2018-06-12T06:21:58.482Z,80.84
2018-06-12T06:24:28.600Z,81.69
2018-06-12T06:26:58.663Z,82.03
2018-06-12T06:29:28.256Z,82.42
2018-06-12T06:31:57.577Z,80.60
2018-06-12T06:34:28.485Z,79.74
2018-06-12T06:36:57.767Z,81.14
2018-06-12T06:39:28.104Z,83.05
2018-06-12T06:41:57.477Z,81.95
2018-06-12T06:47:04.464Z,81.66
2018-06-12T06:49:35.513Z,79.03
2018-06-12T06:52:05.775Z,81.36
2018-06-12T06:54:36.542Z,82.09
2018-06-12T06:57:05.941Z,82.69
2018-06-12T07:02:08.342Z,83.18
2018-06-12T07:04:38.113Z,80.92
2018-06-12T07:07:07.641Z,79.21
2018-06-12T07:09:36.891Z,76.83
2018-06-12T07:12:06.486Z,74.83
2018-06-12T07:14:35.551Z,74.42
2018-06-12T07:17:04.637Z,72.66
2018-06-12T07:19:33.785Z,72.07
2018-06-12T07:22:03.038Z,72.79
2018-06-12T07:24:35.607Z,71.15
2018-06-12T07:27:04.723Z,71.48
2018-06-12T07:29:33.805Z,73.54
2018-06-12T07:32:02.850Z,71.13
2018-06-12T07:34:31.914Z,71.45
2018-06-12T07:37:00.983Z,71.01
2018-06-12T07:39:30.038Z,71.96
2018-06-12T07:41:59.106Z,74.27
2018-06-12T07:47:04.476Z,68.24
2018-06-12T07:49:33.536Z,70.10
2018-06-12T07:52:02.593Z,68.53
2018-06-12T07:54:31.651Z,65.39
2018-06-12T07:57:00.721Z,65.12
2018-06-12T08:02:05.525Z,68.52
2018-06-12T08:09:50.595Z,66.52
2018-06-12T08:12:19.688Z,66.49
2018-06-12T08:14:48.746Z,64.93
2018-06-12T08:17:18.813Z,64.85
2018-06-12T08:22:27.076Z,63.27
2018-06-12T08:24:56.133Z,66.39
2018-06-12T08:27:28.933Z,67.37
2018-06-12T08:35:09.440Z,62.10
2018-06-12T08:37:38.496Z,63.23
2018-06-12T08:40:07.554Z,62.83
2018-06-12T08:42:36.614Z,62.36
2018-06-12T08:45:11.210Z,60.52
2018-06-12T08:47:45.128Z,60.17
2018-06-12T08:50:14.186Z,60.66
2018-06-12T08:52:43.268Z,55.96
2018-06-12T08:55:12.322Z,59.11
2018-06-12T09:00:17.202Z,62.97
2018-06-12T09:02:46.782Z,61.21
2018-06-12T09:05:15.817Z,63.70
2018-06-12T09:07:44.885Z,60.58
2018-06-12T09:10:13.998Z,64.34
2018-06-12T09:12:43.066Z,60.88
2018-06-12T09:15:12.124Z,61.68
2018-06-12T09:17:41.190Z,58.69
2018-06-12T09:20:10.232Z,57.56
2018-06-12T09:22:39.274Z,59.80
2018-06-12T09:25:08.373Z,61.39
2018-06-12T09:30:13.146Z,57.68
2018-06-12T09:35:17.978Z,57.28
2018-06-12T09:40:23.763Z,49.47
2018-06-12T09:42:52.872Z,51.14
2018-06-12T09:45:21.921Z,50.63
2018-06-12T09:47:51.997Z,50.98
2018-06-12T09:50:21.046Z,51.14
2018-06-12T09:52:50.094Z,49.76
2018-06-12T09:55:19.154Z,46.70
2018-06-12T09:57:48.246Z,42.78
2018-06-12T10:02:56.701Z,39.01
2018-06-12T10:05:25.766Z,39.80
2018-06-12T10:10:31.695Z,36.89
2018-06-12T10:15:37.573Z,37.15
2018-06-12T10:18:06.626Z,40.18
2018-06-12T10:20:35.665Z,41.09
2018-06-12T10:23:06.622Z,37.87
2018-06-12T10:28:11.472Z,38.04
2018-06-12T10:30:40.529Z,35.82
2018-06-12T10:33:09.577Z,31.20
2018-06-12T10:35:38.634Z,36.63
2018-06-12T10:38:07.693Z,35.07
2018-06-12T10:40:36.737Z,41.11
2018-06-12T10:43:06.205Z,36.00
2018-06-12T10:45:35.272Z,41.61
2018-06-12T10:50:40.126Z,40.29
2018-06-12T10:55:45.062Z,34.99
2018-06-12T10:58:14.093Z,36.06
2018-06-12T11:00:43.163Z,36.55
2018-06-12T11:03:12.214Z,34.70
2018-06-12T11:05:41.277Z,36.97
2018-06-12T11:08:10.345Z,37.61
2018-06-12T11:10:39.396Z,35.42
2018-06-12T11:13:08.465Z,32.74
2018-06-12T11:15:37.507Z,30.09
2018-06-12T11:18:06.726Z,30.70
2018-06-12T11:20:35.878Z,32.19
2018-06-12T11:25:40.224Z,32.52
2018-06-12T11:28:09.329Z,31.75
2018-06-12T11:30:38.398Z,30.98
2018-06-12T11:33:08.445Z,30.06
2018-06-12T11:35:37.448Z,29.95
2018-06-12T11:38:10.386Z,28.02
2018-06-12T11:40:39.469Z,28.15
2018-06-12T11:43:08.515Z,28.54
2018-06-12T11:45:37.571Z,30.01
2018-06-12T11:50:43.452Z,29.68
2018-06-12T11:53:15.665Z,29.41
2018-06-12T11:55:44.738Z,25.98
2018-06-12T11:58:13.804Z,25.06
2018-06-12T12:00:42.880Z,26.09
2018-06-12T12:03:11.946Z,25.59
2018-06-12T12:05:41.034Z,25.55
2018-06-12T12:08:10.153Z,25.41
2018-06-12T12:10:39.543Z,26.36
2018-06-12T12:13:08.628Z,26.68
2018-06-12T12:15:37.675Z,26.65
2018-06-12T12:18:06.757Z,27.95
2018-06-12T12:20:35.802Z,27.35
2018-06-12T12:23:05.591Z,25.43
2018-06-12T12:25:34.654Z,28.54
2018-06-12T12:28:04.995Z,26.96
2018-06-12T12:33:09.931Z,25.81
2018-06-12T12:35:39.021Z,26.76
2018-06-12T12:38:08.082Z,28.12
2018-06-12T12:40:37.202Z,28.48
2018-06-12T12:43:07.078Z,31.61
2018-06-12T12:45:36.144Z,31.60
2018-06-12T12:48:05.971Z,35.18
2018-06-12T12:53:10.852Z,33.31
2018-06-12T12:55:39.911Z,33.97
2018-06-12T12:58:09.039Z,33.43
2018-06-12T13:00:40.042Z,32.33
2018-06-12T13:03:09.099Z,34.59
2018-06-12T13:08:15.476Z,34.45
2018-06-12T13:10:45.465Z,34.96
2018-06-12T13:13:14.556Z,35.26
2018-06-12T13:15:44.603Z,34.98
2018-06-12T13:18:13.662Z,34.43
2018-06-12T13:20:42.721Z,35.43
2018-06-12T13:23:11.854Z,36.94
2018-06-12T13:25:41.926Z,37.58
2018-06-12T13:28:11.062Z,38.76
2018-06-12T13:30:40.098Z,41.24
2018-06-12T13:33:09.156Z,41.84
2018-06-12T13:35:38.234Z,44.55
2018-06-12T13:40:43.070Z,45.52
2018-06-12T13:43:12.192Z,43.48
2018-06-12T13:45:41.272Z,47.37
2018-06-12T13:48:14.849Z,49.60
2018-06-12T13:50:48.130Z,50.90
2018-06-12T13:55:59.108Z,47.79
2018-06-12T13:58:28.259Z,50.40
2018-06-12T14:00:57.365Z,52.78
2018-06-12T14:03:26.438Z,52.07
2018-06-12T14:05:55.517Z,49.62
2018-06-12T14:08:24.596Z,49.67
2018-06-12T14:10:54.640Z,48.38
2018-06-12T14:13:23.688Z,49.92
2018-06-12T14:15:57.361Z,49.44
2018-06-12T14:18:26.693Z,49.07
2018-06-12T14:20:55.814Z,49.53
2018-06-12T14:23:24.869Z,55.85
2018-06-12T14:25:54.862Z,54.44
2018-06-12T14:28:23.941Z,51.48
2018-06-12T14:30:52.997Z,54.19
2018-06-12T14:33:22.060Z,52.62
2018-06-12T14:38:32.822Z,54.29
2018-06-12T14:43:37.640Z,53.98
2018-06-12T14:46:07.850Z,58.11
2018-06-12T14:48:36.969Z,54.90
2018-06-12T14:51:06.121Z,56.80
2018-06-12T14:53:35.193Z,60.24
2018-06-12T14:58:40.519Z,61.37
2018-06-12T15:01:11.703Z,60.52
2018-06-12T15:03:41.808Z,59.17
2018-06-12T15:06:10.853Z,61.00
2018-06-12T15:08:39.929Z,64.20
2018-06-12T15:13:44.758Z,62.45
2018-06-12T15:16:13.828Z,65.16
2018-06-12T15:18:42.882Z,62.80
2018-06-12T15:23:47.669Z,62.51
2018-06-12T15:26:24.547Z,67.14
2018-06-12T15:28:53.618Z,71.70
2018-06-12T15:31:22.682Z,84.05
2018-06-12T15:33:51.751Z,90.06
2018-06-12T15:38:56.675Z,93.37
2018-06-12T15:41:26.717Z,94.20
2018-06-12T15:43:55.806Z,93.73
2018-06-12T15:46:24.870Z,90.55
2018-06-12T15:48:53.917Z,91.29
2018-06-12T15:53:58.812Z,97.62
2018-06-12T15:56:27.876Z,96.98
2018-06-12T15:58:56.932Z,100.00
2018-06-12T16:01:25.566Z,100.00
2018-06-12T16:03:54.092Z,100.00
2018-06-12T16:06:22.632Z,99.96
2018-06-12T16:08:51.437Z,100.00
2018-06-12T16:11:20.052Z,100.00
2018-06-12T16:13:48.591Z,100.00
2018-06-12T16:16:17.133Z,100.00
2018-06-12T16:18:45.667Z,100.00
2018-06-12T16:21:14.204Z,100.00
2018-06-12T16:23:42.756Z,100.00
2018-06-12T16:26:11.318Z,100.00
2018-06-12T16:28:39.911Z,100.00
2018-06-12T16:31:08.463Z,100.00
2018-06-12T16:33:37.115Z,100.00
2018-06-12T16:36:05.686Z,100.00
2018-06-12T16:38:34.204Z,100.00
2018-06-12T16:41:02.763Z,100.00
2018-06-12T16:43:31.299Z,100.00
2018-06-12T16:45:59.843Z,100.00
2018-06-12T16:48:29.770Z,100.00
2018-06-12T16:50:58.295Z,100.00
2018-06-12T16:53:27.866Z,100.00
2018-06-12T16:55:56.403Z,100.00
2018-06-12T16:58:24.952Z,100.00
2018-06-12T17:00:53.532Z,100.00
2018-06-12T17:03:22.069Z,100.00
2018-06-12T17:05:53.663Z,100.00
2018-06-12T17:08:22.230Z,100.00
2018-06-12T17:10:50.762Z,100.00
2018-06-12T17:13:19.300Z,100.00
2018-06-12T17:15:47.837Z,100.00
2018-06-12T17:18:16.412Z,100.00
2018-06-12T17:20:44.958Z,100.00
2018-06-12T17:23:13.512Z,100.00
2018-06-12T17:25:42.112Z,100.00
2018-06-12T17:28:11.613Z,100.00
2018-06-12T17:30:40.240Z,100.00
2018-06-12T17:33:08.813Z,100.00
2018-06-12T17:35:37.404Z,100.00
2018-06-12T17:38:05.962Z,100.00
2018-06-12T17:40:34.490Z,100.00
2018-06-12T17:43:03.032Z,100.00
2018-06-12T17:45:31.617Z,100.00
2018-06-12T17:48:00.189Z,100.00
2018-06-12T17:50:31.350Z,100.00
2018-06-12T17:53:00.112Z,100.00
2018-06-12T17:55:28.805Z,100.00
2018-06-12T17:57:59.470Z,100.00
2018-06-12T18:00:28.031Z,100.00
2018-06-12T18:03:01.715Z,100.00
2018-06-12T18:05:30.482Z,100.00
2018-06-12T18:08:01.024Z,100.00
2018-06-12T18:10:30.601Z,100.00
2018-06-12T18:12:59.171Z,100.00
2018-06-12T18:15:28.114Z,100.00
2018-06-12T18:17:56.653Z,100.00
2018-06-12T18:20:26.352Z,100.00
2018-06-12T18:22:55.108Z,100.00
2018-06-12T18:25:23.652Z,100.00
2018-06-12T18:27:52.214Z,100.00
2018-06-12T18:30:21.895Z,100.00
2018-06-12T18:32:51.432Z,100.00
2018-06-12T18:35:20.115Z,100.00
2018-06-12T18:37:48.665Z,100.00
2018-06-12T18:40:17.206Z,100.00
2018-06-12T18:42:46.047Z,100.00
2018-06-12T18:45:14.631Z,100.00
2018-06-12T18:47:43.167Z,100.00
2018-06-12T18:50:11.768Z,100.00
2018-06-12T18:52:43.938Z,100.00
2018-06-12T18:55:12.500Z,100.00
2018-06-12T18:57:41.223Z,100.00
2018-06-12T19:00:09.788Z,100.00
2018-06-12T19:02:38.343Z,100.00
2018-06-12T19:05:07.876Z,100.00
2018-06-12T19:07:36.424Z,100.00
2018-06-12T19:10:06.000Z,100.00
2018-06-12T19:12:34.573Z,100.00
2018-06-12T19:15:03.137Z,100.00
2018-06-12T19:17:31.721Z,100.00
2018-06-12T19:20:10.442Z,100.00
2018-06-12T19:22:49.030Z,100.00
2018-06-12T19:25:26.646Z,100.00
2018-06-12T19:28:06.902Z,100.00
2018-06-12T19:30:44.756Z,100.00
2018-06-12T19:33:23.836Z,100.00
2018-06-12T19:36:01.638Z,100.00
2018-06-12T19:38:41.484Z,100.00
2018-06-12T19:41:22.135Z,100.00
2018-06-12T19:43:59.995Z,100.00
2018-06-12T19:46:29.002Z,100.00
2018-06-12T19:49:01.003Z,100.00
2018-06-12T19:51:29.947Z,100.00
2018-06-12T19:54:01.736Z,100.00
2018-06-12T19:56:30.999Z,100.00
2018-06-12T19:59:00.037Z,100.00
2018-06-12T20:01:28.732Z,100.00
2018-06-12T20:03:58.664Z,100.00
2018-06-12T20:06:27.336Z,100.00
2018-06-12T20:08:56.249Z,100.00
2018-06-12T20:11:25.172Z,100.00
2018-06-12T20:13:53.885Z,100.00
2018-06-12T20:16:23.000Z,100.00
2018-06-12T20:18:51.729Z,100.00
2018-06-12T20:21:20.354Z,100.00
2018-06-12T20:23:49.522Z,100.00
2018-06-12T20:26:18.364Z,100.00
2018-06-12T20:28:47.308Z,100.00
2018-06-12T20:31:16.106Z,100.00
2018-06-12T20:33:45.135Z,100.00
2018-06-12T20:36:13.764Z,100.00
2018-06-12T20:38:42.468Z,100.00
2018-06-12T20:41:11.478Z,100.00
2018-06-12T20:43:40.578Z,100.00
2018-06-12T20:46:10.595Z,100.00
2018-06-12T20:48:39.645Z,100.00
2018-06-12T20:51:08.985Z,100.00
2018-06-12T20:53:37.592Z,100.00
2018-06-12T20:56:08.184Z,100.00
2018-06-12T20:58:39.740Z,100.00
2018-06-12T21:01:11.602Z,100.00
2018-06-12T21:03:40.211Z,100.00
2018-06-12T21:06:08.812Z,100.00
2018-06-12T21:08:38.841Z,100.00
2018-06-12T21:11:07.639Z,100.00
2018-06-12T21:13:41.697Z,100.00
2018-06-12T21:16:10.199Z,100.00
2018-06-12T21:18:38.749Z,100.00
2018-06-12T21:21:07.312Z,100.00
2018-06-12T21:23:36.834Z,100.00
2018-06-12T21:26:05.366Z,100.00
2018-06-12T21:28:35.837Z,100.00
2018-06-12T21:31:04.352Z,100.00
2018-06-12T21:33:32.886Z,100.00
2018-06-12T21:36:03.752Z,100.00
2018-06-12T21:38:33.296Z,100.00
2018-06-12T21:41:01.829Z,100.00
2018-06-12T21:43:30.460Z,100.00
2018-06-12T21:45:58.963Z,100.00
2018-06-12T21:48:27.555Z,100.00
2018-06-12T21:50:57.031Z,100.00
2018-06-12T21:53:25.560Z,100.00
2018-06-12T21:55:54.101Z,100.00
2018-06-12T21:58:22.661Z,100.00
2018-06-12T22:00:51.220Z,100.00
2018-06-12T22:03:19.750Z,100.00
2018-06-12T22:05:51.572Z,100.00
2018-06-12T22:08:20.099Z,100.00
2018-06-12T22:10:48.645Z,100.00
2018-06-12T22:13:17.185Z,100.00
2018-06-12T22:15:45.722Z,100.00
2018-06-12T22:18:14.273Z,100.00
2018-06-12T22:20:43.784Z,100.00
2018-06-12T22:23:12.324Z,100.00
2018-06-12T22:25:40.863Z,100.00
2018-06-12T22:28:09.412Z,100.00
2018-06-12T22:30:38.960Z,100.00
2018-06-12T22:33:09.492Z,100.00
2018-06-12T22:35:38.024Z,100.00
2018-06-12T22:38:07.601Z,100.00
2018-06-12T22:40:36.135Z,100.00
2018-06-12T22:43:04.663Z,100.00
2018-06-12T22:45:33.255Z,100.00
2018-06-12T22:48:01.751Z,100.00
2018-06-12T22:50:30.288Z,100.00
2018-06-12T22:53:00.763Z,100.00
2018-06-12T22:55:29.310Z,100.00
2018-06-12T22:57:58.848Z,100.00
2018-06-12T23:00:27.380Z,100.00
2018-06-12T23:02:55.931Z,100.00
2018-06-12T23:05:24.485Z,100.00
2018-06-12T23:07:53.027Z,100.00
2018-06-12T23:10:21.605Z,100.00
2018-06-12T23:12:50.102Z,100.00
2018-06-12T23:15:18.631Z,100.00
2018-06-12T23:17:50.621Z,100.00
2018-06-12T23:23:15.989Z,100.00
2018-06-12T23:25:44.541Z,100.00
2018-06-12T23:28:13.076Z,100.00
2018-06-12T23:30:42.633Z,100.00
2018-06-12T23:33:11.176Z,100.00
2018-06-12T23:35:39.722Z,100.00
2018-06-12T23:38:08.316Z,100.00
2018-06-12T23:40:36.894Z,100.00
2018-06-12T23:43:05.514Z,100.00
2018-06-12T23:45:34.069Z,100.00
2018-06-12T23:48:04.613Z,100.00
2018-06-12T23:50:34.100Z,100.00
2018-06-12T23:53:02.648Z,100.00
2018-06-12T23:55:31.191Z,100.00
2018-06-12T23:57:59.716Z,100.00
